Time;durP1;ratioP1;P1;durP2;ratioP2;P2;SDS_P1;SDS_P2;PMS_P1;PMS_P2;Temp;Humidity;BMP_temperature;BMP_pressure;BME280_temperature;BME280_humidity;BME280_pressure;Samples;Min_cycle;Max_cycle;Signal;HPM_P1;HPM_P2
2021/11/16 00:01:39;;;;;;;57.33;31.38;;;9.20;78.40;;;;;;4405457;29;20053;-69
2021/11/16 00:03:58;;;;;;;61.50;32.10;;;9.20;77.60;;;;;;4401923;29;20109;-69
2021/11/16 00:06:14;;;;;;;60.08;31.15;;;9.10;77.60;;;;;;4404213;29;20518;-69
2021/11/16 00:08:30;;;;;;;61.78;32.75;;;9.10;77.60;;;;;;4403403;29;20502;-68
2021/11/16 00:10:49;;;;;;;59.67;32.60;;;9.10;77.70;;;;;;4405067;29;20074;-68
2021/11/16 00:13:10;;;;;;;65.05;34.90;;;9.00;77.60;;;;;;4402755;29;20054;-68
2021/11/16 00:15:29;;;;;;;66.37;34.83;;;9.00;77.70;;;;;;4404167;29;20492;-69
2021/11/16 00:17:47;;;;;;;59.28;32.25;;;9.00;77.70;;;;;;4404566;29;20078;-69
2021/11/16 00:20:09;;;;;;;57.38;33.15;;;9.00;77.70;;;;;;4403514;29;20054;-69
2021/11/16 00:22:28;;;;;;;59.88;33.33;;;8.90;77.60;;;;;;4403503;29;20445;-68
2021/11/16 00:24:56;;;;;;;64.85;32.40;;;8.90;77.60;;;;;;4403175;29;20471;-68
2021/11/16 00:27:12;;;;;;;61.95;32.83;;;8.90;77.60;;;;;;4405258;29;20043;-68
2021/11/16 00:29:30;;;;;;;64.15;33.88;;;8.80;77.50;;;;;;4402041;29;20050;-69
2021/11/16 00:31:46;;;;;;;62.30;33.78;;;8.80;77.60;;;;;;4405215;29;20058;-68
2021/11/16 00:34:06;;;;;;;62.13;33.80;;;8.80;77.50;;;;;;4401753;29;20157;-69
2021/11/16 00:36:23;;;;;;;63.95;35.05;;;8.70;77.50;;;;;;4403936;29;20042;-68
2021/11/16 00:38:40;;;;;;;59.90;33.15;;;8.70;78.30;;;;;;4401798;29;20086;-68
2021/11/16 00:40:57;;;;;;;63.30;32.88;;;8.60;77.50;;;;;;4405097;29;20138;-68
2021/11/16 00:43:13;;;;;;;64.18;33.00;;;8.60;77.60;;;;;;4403357;29;20046;-68
2021/11/16 00:45:32;;;;;;;64.65;32.70;;;8.60;77.60;;;;;;4403403;29;20082;-67
2021/11/16 00:47:48;;;;;;;63.85;33.58;;;8.60;77.60;;;;;;4403959;29;20490;-69
2021/11/16 00:50:05;;;;;;;62.92;34.33;;;8.50;77.40;;;;;;4404020;29;20066;-69
2021/11/16 00:52:24;;;;;;;64.15;34.08;;;8.50;78.20;;;;;;4404660;29;20108;-68
2021/11/16 00:54:41;;;;;;;61.03;33.90;;;8.50;78.10;;;;;;4403430;29;20100;-68
2021/11/16 00:56:58;;;;;;;64.28;34.85;;;8.50;77.40;;;;;;4405347;29;20058;-68
2021/11/16 00:59:16;;;;;;;60.28;32.92;;;8.40;77.40;;;;;;4401686;29;20079;-68
2021/11/16 01:01:34;;;;;;;61.03;32.92;;;8.40;77.40;;;;;;4404921;29;20083;-68
2021/11/16 01:03:50;;;;;;;59.50;33.17;;;8.40;77.40;;;;;;4401463;29;20063;-68
2021/11/16 01:06:07;;;;;;;66.55;33.63;;;8.30;77.30;;;;;;4404322;29;20517;-68
2021/11/16 01:08:24;;;;;;;62.33;32.90;;;8.30;77.40;;;;;;4401822;29;20126;-68
2021/11/16 01:10:44;;;;;;;57.78;31.83;;;8.20;77.30;;;;;;4404220;29;20479;-68
2021/11/16 01:13:00;;;;;;;59.90;33.10;;;8.20;77.40;;;;;;4401947;29;20089;-68
2021/11/16 01:15:18;;;;;;;62.60;33.25;;;8.20;77.30;;;;;;4403792;29;20483;-68
2021/11/16 01:17:36;;;;;;;69.72;35.42;;;8.20;77.40;;;;;;4399682;29;20418;-68
2021/11/16 01:19:53;;;;;;;55.85;31.42;;;8.20;77.40;;;;;;4401705;29;20133;-68
2021/11/16 01:22:09;;;;;;;62.53;32.88;;;8.20;77.30;;;;;;4399679;29;20054;-69
2021/11/16 01:24:26;;;;;;;66.85;32.40;;;8.10;77.30;;;;;;4401179;29;20098;-68
2021/11/16 01:26:44;;;;;;;62.13;32.53;;;8.10;77.30;;;;;;4400179;29;20078;-68
2021/11/16 01:29:02;;;;;;;61.47;32.55;;;8.10;77.40;;;;;;4402194;29;20058;-69
2021/11/16 01:31:18;;;;;;;63.78;33.63;;;8.10;77.30;;;;;;4402147;29;20047;-68
2021/11/16 01:33:44;;;;;;;62.55;33.22;;;8.00;77.20;;;;;;4403295;29;20082;-68
2021/11/16 01:36:01;;;;;;;59.33;33.63;;;8.00;77.30;;;;;;4408243;29;20054;-68
2021/11/16 01:38:17;;;;;;;61.75;32.22;;;7.90;77.30;;;;;;4405878;29;20060;-68
2021/11/16 01:40:36;;;;;;;57.90;30.80;;;7.90;77.30;;;;;;4406597;29;20536;-67
2021/11/16 01:42:53;;;;;;;57.30;32.00;;;7.90;77.30;;;;;;4404304;29;20133;-68
2021/11/16 01:45:11;;;;;;;59.65;30.85;;;7.90;77.40;;;;;;4406374;29;20050;-68
2021/11/16 01:47:28;;;;;;;55.60;30.55;;;7.90;77.40;;;;;;4405421;29;20140;-68
2021/11/16 01:49:47;;;;;;;59.10;31.13;;;7.90;77.30;;;;;;4406259;29;20046;-69
2021/11/16 01:52:05;;;;;;;54.92;29.33;;;7.90;77.20;;;;;;4404354;29;20057;-69
2021/11/16 01:54:21;;;;;;;57.78;30.92;;;7.90;77.00;;;;;;4406248;29;20083;-68
2021/11/16 01:56:41;;;;;;;55.58;30.50;;;8.00;76.90;;;;;;4404032;29;20084;-68
2021/11/16 01:58:59;;;;;;;59.00;31.23;;;8.00;76.90;;;;;;4407505;29;20103;-68
2021/11/16 02:01:16;;;;;;;57.17;32.35;;;8.00;77.60;;;;;;4405775;29;20138;-68
2021/11/16 02:03:33;;;;;;;60.47;31.48;;;8.00;76.80;;;;;;4406634;29;20082;-68
2021/11/16 02:05:56;;;;;;;59.40;31.73;;;8.10;76.80;;;;;;4405375;29;20047;-68
2021/11/16 02:08:15;;;;;;;57.50;31.38;;;8.10;76.70;;;;;;4403238;29;20074;-69
2021/11/16 02:10:33;;;;;;;56.10;30.42;;;8.00;76.60;;;;;;4404843;29;20104;-69
2021/11/16 02:12:50;;;;;;;61.08;32.22;;;8.00;76.70;;;;;;4404143;29;20483;-69
2021/11/16 02:15:07;;;;;;;58.88;31.13;;;8.00;76.70;;;;;;4406926;29;20553;-69
2021/11/16 02:17:23;;;;;;;64.18;32.53;;;8.10;76.70;;;;;;4402363;29;20047;-68
2021/11/16 02:19:40;;;;;;;55.83;30.17;;;8.10;76.70;;;;;;4406984;29;20078;-68
2021/11/16 02:22:01;;;;;;;55.45;31.30;;;8.10;76.70;;;;;;4403693;29;20066;-68
2021/11/16 02:24:17;;;;;;;61.58;30.60;;;8.10;76.60;;;;;;4405292;29;20063;-69
2021/11/16 02:26:34;;;;;;;54.78;30.70;;;8.10;76.60;;;;;;4401637;29;20153;-69
2021/11/16 02:28:51;;;;;;;55.72;30.90;;;8.10;76.70;;;;;;4405280;29;20058;-68
2021/11/16 02:31:10;;;;;;;59.85;32.30;;;8.20;76.80;;;;;;4401783;29;20098;-68
2021/11/16 02:33:27;;;;;;;58.58;31.90;;;8.10;76.80;;;;;;4405004;29;20050;-68
2021/11/16 02:35:45;;;;;;;59.45;31.85;;;8.20;76.80;;;;;;4402957;29;20467;-67
2021/11/16 02:38:03;;;;;;;60.65;32.35;;;8.20;76.80;;;;;;4403602;29;20047;-68
2021/11/16 02:40:20;;;;;;;57.63;31.55;;;8.20;76.90;;;;;;4405540;29;20051;-68
2021/11/16 02:42:36;;;;;;;59.88;32.05;;;8.20;76.80;;;;;;4405702;29;20579;-68
2021/11/16 02:44:54;;;;;;;60.88;30.98;;;8.20;76.90;;;;;;4404754;29;20047;-68
2021/11/16 02:47:10;;;;;;;62.15;30.80;;;8.30;77.70;;;;;;4404437;29;20053;-67
2021/11/16 02:49:27;;;;;;;55.47;30.10;;;8.30;76.90;;;;;;4405208;29;20075;-67
2021/11/16 02:51:46;;;;;;;62.88;31.67;;;8.30;76.90;;;;;;4404590;29;20051;-67
2021/11/16 02:54:11;;;;;;;57.35;31.15;;;8.30;77.00;;;;;;4406472;29;20087;-68
2021/11/16 02:56:28;;;;;;;61.00;31.98;;;8.30;77.00;;;;;;4404487;29;20093;-68
2021/11/16 02:58:45;;;;;;;62.42;32.80;;;8.30;77.10;;;;;;4405501;29;20051;-68
2021/11/16 03:01:04;;;;;;;59.92;31.90;;;8.30;77.10;;;;;;4404189;29;20062;-68
2021/11/16 03:03:21;;;;;;;60.08;33.08;;;8.30;77.10;;;;;;4406339;29;20069;-69
2021/11/16 03:05:38;;;;;;;58.15;32.03;;;8.40;77.20;;;;;;4402950;29;20055;-69
2021/11/16 03:07:56;;;;;;;58.55;31.83;;;8.40;77.20;;;;;;4406260;29;20047;-69
2021/11/16 03:10:16;;;;;;;58.35;32.28;;;8.40;77.20;;;;;;4403012;29;20078;-68
2021/11/16 03:12:33;;;;;;;55.40;31.23;;;8.50;78.10;;;;;;4404764;29;20054;-68
2021/11/16 03:14:50;;;;;;;58.10;31.63;;;8.50;77.40;;;;;;4404701;29;20054;-68
2021/11/16 03:17:07;;;;;;;56.08;31.17;;;8.50;77.40;;;;;;4405312;29;20078;-68
2021/11/16 03:19:23;;;;;;;57.58;31.90;;;8.50;77.40;;;;;;4405154;29;20054;-68
2021/11/16 03:21:42;;;;;;;57.38;31.52;;;8.50;77.40;;;;;;4403517;29;20057;-69
2021/11/16 03:24:00;;;;;;;60.67;32.63;;;8.50;77.50;;;;;;4405670;29;20082;-69
2021/11/16 03:26:19;;;;;;;62.95;31.17;;;8.50;77.60;;;;;;4404129;29;20047;-68
2021/11/16 03:28:39;;;;;;;52.95;30.15;;;8.60;77.60;;;;;;4404774;29;20051;-68
2021/11/16 03:30:59;;;;;;;56.50;30.23;;;8.60;77.60;;;;;;4403935;29;20105;-69
2021/11/16 03:33:16;;;;;;;56.05;30.13;;;8.60;77.60;;;;;;4404667;29;20055;-68
2021/11/16 03:35:35;;;;;;;58.30;30.30;;;8.60;78.40;;;;;;4402528;29;20057;-68
2021/11/16 03:37:58;;;;;;;57.45;31.48;;;8.60;77.60;;;;;;4405853;29;20109;-68
2021/11/16 03:40:16;;;;;;;60.15;30.95;;;8.60;77.60;;;;;;4403621;29;20055;-68
2021/11/16 03:42:39;;;;;;;53.60;29.90;;;8.60;77.60;;;;;;4404834;29;20058;-68
2021/11/16 03:44:56;;;;;;;55.13;30.55;;;8.60;77.70;;;;;;4402628;29;20130;-69
2021/11/16 03:47:12;;;;;;;61.90;32.30;;;8.60;77.70;;;;;;4404044;29;20043;-69
2021/11/16 03:49:29;;;;;;;56.55;31.80;;;8.60;77.80;;;;;;4404214;29;20061;-68
2021/11/16 03:51:47;;;;;;;53.60;29.88;;;8.60;77.70;;;;;;4404867;29;20527;-68
2021/11/16 03:54:04;;;;;;;57.75;31.88;;;8.60;77.80;;;;;;4404739;29;20054;-68
2021/11/16 03:56:23;;;;;;;58.10;30.55;;;8.60;77.70;;;;;;4404129;29;20514;-68
2021/11/16 03:58:45;;;;;;;55.45;31.83;;;8.60;77.80;;;;;;4405402;29;20074;-69
2021/11/16 04:01:04;;;;;;;54.22;31.20;;;8.60;77.90;;;;;;4403580;29;20113;-68
2021/11/16 04:03:23;;;;;;;50.83;29.90;;;8.60;78.00;;;;;;4405201;29;20423;-69
2021/11/16 04:05:40;;;;;;;53.63;29.80;;;8.60;78.00;;;;;;4387479;29;20078;-67
2021/11/16 04:07:56;;;;;;;56.45;30.95;;;8.60;77.80;;;;;;4405782;29;20043;-69
2021/11/16 04:10:13;;;;;;;57.92;31.38;;;8.60;77.80;;;;;;4401990;29;20061;-68
2021/11/16 04:12:29;;;;;;;53.63;29.88;;;8.60;77.80;;;;;;4405255;29;20055;-68
2021/11/16 04:14:47;;;;;;;57.00;31.25;;;8.60;77.90;;;;;;4402057;29;20051;-67
2021/11/16 04:17:04;;;;;;;52.92;29.90;;;8.50;78.00;;;;;;4405230;29;20050;-67
2021/11/16 04:19:20;;;;;;;59.22;31.58;;;8.40;78.10;;;;;;4401934;29;20474;-67
2021/11/16 04:21:37;;;;;;;58.17;32.92;;;8.50;78.90;;;;;;4405053;29;20055;-67
2021/11/16 04:23:53;;;;;;;57.33;32.33;;;8.40;78.30;;;;;;4402134;29;20054;-68
2021/11/16 04:26:10;;;;;;;59.58;33.35;;;8.30;78.10;;;;;;4403597;29;20054;-67
2021/11/16 04:28:26;;;;;;;55.08;31.60;;;8.30;78.40;;;;;;4403941;29;20129;-68
2021/11/16 04:30:47;;;;;;;50.92;30.95;;;8.30;78.50;;;;;;4404471;29;20054;-69
2021/11/16 04:33:05;;;;;;;56.58;31.70;;;8.20;78.50;;;;;;4404457;29;20065;-68
2021/11/16 04:35:22;;;;;;;58.50;34.38;;;8.20;78.30;;;;;;4403709;29;20058;-68
2021/11/16 04:37:40;;;;;;;51.33;30.85;;;8.20;78.60;;;;;;4405060;29;20122;-69
2021/11/16 04:39:57;;;;;;;56.90;32.72;;;8.10;78.50;;;;;;4401791;29;20574;-69
2021/11/16 04:42:13;;;;;;;57.58;33.08;;;8.10;78.50;;;;;;4403677;29;20054;-69
2021/11/16 04:44:29;;;;;;;55.58;31.30;;;8.10;78.90;;;;;;4402901;29;20085;-69
2021/11/16 04:46:48;;;;;;;57.60;31.13;;;8.10;78.80;;;;;;4403755;29;20077;-69
2021/11/16 04:49:07;;;;;;;57.08;31.13;;;8.10;78.80;;;;;;4403093;29;20043;-69
2021/11/16 05:04:25;;;;;;;54.95;30.27;;;8.00;78.60;;;;;;4381188;29;20088;-68
2021/11/16 05:06:43;;;;;;;61.47;30.58;;;8.00;78.60;;;;;;4401502;29;20057;-69
2021/11/16 05:08:59;;;;;;;59.28;30.38;;;8.00;78.60;;;;;;4404218;29;20058;-69
2021/11/16 05:11:16;;;;;;;55.78;30.38;;;8.00;78.60;;;;;;4406039;29;20081;-69
2021/11/16 05:13:33;;;;;;;54.00;29.80;;;7.90;78.50;;;;;;4406598;29;20051;-68
2021/11/16 05:15:50;;;;;;;55.80;31.10;;;7.90;78.50;;;;;;4404928;29;20560;-69
2021/11/16 05:18:09;;;;;;;56.95;31.05;;;7.90;78.50;;;;;;4407595;29;20154;-69
2021/11/16 05:20:25;;;;;;;53.88;30.38;;;7.90;78.50;;;;;;4406809;29;20047;-68
2021/11/16 05:22:42;;;;;;;50.45;27.85;;;7.90;78.60;;;;;;4405626;29;20074;-68
2021/11/16 05:24:59;;;;;;;52.72;29.67;;;7.90;78.50;;;;;;4407431;29;20114;-68
2021/11/16 05:27:16;;;;;;;53.30;29.08;;;7.90;78.40;;;;;;4405000;29;20050;-69
2021/11/16 05:29:32;;;;;;;58.58;30.45;;;7.90;78.50;;;;;;4407733;29;20126;-69
2021/11/16 05:31:49;;;;;;;51.60;29.10;;;7.90;78.40;;;;;;4405723;29;20085;-69
2021/11/16 05:34:07;;;;;;;52.67;29.80;;;7.90;78.40;;;;;;4407536;29;20414;-69
2021/11/16 05:36:24;;;;;;;60.05;29.63;;;7.90;78.40;;;;;;4405471;29;20073;-68
2021/11/16 05:38:43;;;;;;;55.00;32.85;;;7.90;78.40;;;;;;4406312;29;20391;-68
2021/11/16 05:41:00;;;;;;;54.75;30.10;;;8.00;78.40;;;;;;4405440;29;20081;-69
2021/11/16 05:43:16;;;;;;;54.25;29.75;;;8.00;78.30;;;;;;4407426;29;20057;-68
2021/11/16 05:45:33;;;;;;;54.22;28.77;;;8.00;79.00;;;;;;4405517;29;20078;-69
2021/11/16 05:47:53;;;;;;;53.15;27.70;;;8.00;78.30;;;;;;4406106;29;20502;-68
2021/11/16 05:50:13;;;;;;;58.72;29.35;;;8.00;78.20;;;;;;4405277;29;20059;-68
2021/11/16 05:52:30;;;;;;;51.47;28.45;;;8.00;78.20;;;;;;4407262;29;20360;-68
2021/11/16 05:54:48;;;;;;;53.13;28.92;;;8.00;78.10;;;;;;4405824;29;20057;-68
2021/11/16 05:57:06;;;;;;;53.95;29.52;;;8.00;78.20;;;;;;4406784;29;20414;-69
2021/11/16 05:59:26;;;;;;;51.75;29.02;;;8.00;78.20;;;;;;4404966;29;20054;-69
2021/11/16 06:01:43;;;;;;;60.28;32.08;;;8.00;78.20;;;;;;4404910;29;20130;-68
2021/11/16 06:03:59;;;;;;;48.17;27.40;;;8.00;78.20;;;;;;4406267;29;20100;-68
2021/11/16 06:06:19;;;;;;;50.85;27.80;;;8.00;78.20;;;;;;4405742;29;20459;-68
2021/11/16 06:08:38;;;;;;;52.28;29.02;;;8.00;78.20;;;;;;4406915;29;20410;-69
2021/11/16 06:10:56;;;;;;;54.03;29.58;;;8.00;78.20;;;;;;4405498;29;20085;-67
2021/11/16 06:13:13;;;;;;;51.70;29.85;;;8.00;78.20;;;;;;4406985;29;20054;-68
2021/11/16 06:15:29;;;;;;;52.78;28.98;;;8.00;78.20;;;;;;4402897;29;20554;-68
2021/11/16 06:17:45;;;;;;;54.33;29.35;;;8.00;78.10;;;;;;4405383;29;20121;-68
2021/11/16 06:20:03;;;;;;;51.28;28.67;;;8.00;78.10;;;;;;4401384;29;20047;-69
2021/11/16 06:22:20;;;;;;;58.67;31.05;;;8.00;78.10;;;;;;4403972;29;20069;-68
2021/11/16 06:24:37;;;;;;;57.78;28.88;;;8.00;78.10;;;;;;4403355;29;20051;-69
2021/11/16 06:26:53;;;;;;;52.10;29.25;;;8.00;78.10;;;;;;4404876;29;20077;-69
2021/11/16 06:29:10;;;;;;;53.97;29.08;;;8.00;78.00;;;;;;4401607;29;20050;-68
2021/11/16 06:31:29;;;;;;;52.47;28.52;;;8.10;78.20;;;;;;4404713;29;20049;-69
2021/11/16 06:33:46;;;;;;;52.58;28.02;;;8.10;78.20;;;;;;4402976;29;20372;-69
2021/11/16 06:36:05;;;;;;;51.28;30.00;;;8.10;78.20;;;;;;4404133;29;20107;-67
2021/11/16 06:38:23;;;;;;;53.28;28.23;;;8.10;78.10;;;;;;4402220;29;20518;-68
2021/11/16 06:40:47;;;;;;;51.35;29.42;;;8.20;78.10;;;;;;4402178;29;20534;-68
2021/11/16 06:43:03;;;;;;;53.35;30.20;;;8.20;78.00;;;;;;4404826;29;20043;-67
2021/11/16 06:45:20;;;;;;;56.22;29.27;;;8.20;78.00;;;;;;4404694;29;20100;-68
2021/11/16 06:47:37;;;;;;;52.55;30.23;;;8.30;78.00;;;;;;4405097;29;20559;-68
2021/11/16 06:49:53;;;;;;;53.38;32.05;;;8.30;77.90;;;;;;4403283;29;20474;-68
2021/11/16 06:52:09;;;;;;;56.28;31.85;;;8.40;78.00;;;;;;4406287;29;20053;-68
2021/11/16 06:54:28;;;;;;;52.55;29.35;;;8.40;77.90;;;;;;4404350;29;20054;-68
2021/11/16 06:56:48;;;;;;;51.38;29.40;;;8.50;77.90;;;;;;4405022;29;20103;-69
2021/11/16 06:59:05;;;;;;;54.35;29.60;;;8.50;77.80;;;;;;4404146;29;20075;-68
2021/11/16 07:01:22;;;;;;;55.13;31.73;;;8.60;77.80;;;;;;4406151;29;20494;-67
2021/11/16 07:03:38;;;;;;;53.20;29.98;;;8.60;77.70;;;;;;4403818;29;20054;-68
2021/11/16 07:05:57;;;;;;;55.00;30.83;;;8.70;77.70;;;;;;4406048;29;20055;-69
2021/11/16 07:08:13;;;;;;;58.72;31.13;;;8.70;77.70;;;;;;4402093;29;20070;-68
2021/11/16 07:10:32;;;;;;;54.88;29.73;;;8.70;77.70;;;;;;4405292;29;20058;-69
2021/11/16 07:12:51;;;;;;;52.53;29.48;;;8.80;77.90;;;;;;4403315;29;20480;-69
2021/11/16 07:15:08;;;;;;;56.08;31.60;;;8.80;77.80;;;;;;4403941;29;20100;-68
2021/11/16 07:17:24;;;;;;;54.15;30.35;;;8.90;77.70;;;;;;4403739;29;20130;-69
2021/11/16 07:19:43;;;;;;;59.78;33.30;;;9.00;77.70;;;;;;4403439;29;20055;-70
2021/11/16 07:22:03;;;;;;;682.05;372.35;;;9.10;77.60;;;;;;4402230;29;20127;-69
2021/11/16 07:24:22;;;;;;;86.63;49.30;;;9.10;77.50;;;;;;4400502;29;20057;-69
2021/11/16 07:26:41;;;;;;;152.10;77.65;;;9.20;77.30;;;;;;4402693;29;20061;-68
2021/11/16 07:28:58;;;;;;;62.50;31.85;;;9.30;77.30;;;;;;4402214;29;20494;-69
2021/11/16 07:31:18;;;;;;;55.55;31.17;;;9.30;77.10;;;;;;4402672;29;20817;-69
2021/11/16 07:33:37;;;;;;;57.47;31.35;;;9.30;77.20;;;;;;4401859;29;20047;-68
2021/11/16 07:35:54;;;;;;;58.58;32.28;;;9.30;77.30;;;;;;4404475;29;20058;-68
2021/11/16 07:38:12;;;;;;;54.25;29.73;;;9.30;78.00;;;;;;4403683;29;20165;-69
2021/11/16 07:40:30;;;;;;;56.47;30.80;;;9.30;77.30;;;;;;4405769;29;20058;-69
2021/11/16 07:42:50;;;;;;;57.67;33.90;;;9.30;77.30;;;;;;4403647;29;20084;-67
2021/11/16 07:45:11;;;;;;;59.17;32.72;;;9.40;77.30;;;;;;4405474;29;20049;-67
2021/11/16 07:47:47;;;;;;;58.20;32.17;;;9.40;77.30;;;;;;4404121;29;20062;-68
2021/11/16 07:50:08;;;;;;;55.33;31.60;;;9.40;77.20;;;;;;4404022;29;20139;-68
2021/11/16 07:52:28;;;;;;;57.22;32.53;;;9.40;77.00;;;;;;4403890;29;20536;-68
2021/11/16 07:54:47;;;;;;;60.40;32.53;;;9.50;77.00;;;;;;4402406;29;20046;-68
2021/11/16 07:57:07;;;;;;;56.33;31.73;;;9.50;77.00;;;;;;4404082;29;20482;-67
2021/11/16 07:59:25;;;;;;;58.28;31.33;;;9.50;77.00;;;;;;4403337;29;20538;-69
2021/11/16 08:01:47;;;;;;;55.65;32.42;;;9.60;76.90;;;;;;4404056;29;20059;-69
2021/11/16 08:04:16;;;;;;;56.08;32.13;;;9.70;76.80;;;;;;4403198;29;20089;-69
2021/11/16 08:06:37;;;;;;;55.65;31.42;;;9.70;76.80;;;;;;4405390;29;20435;-67
2021/11/16 08:09:09;;;;;;;54.92;31.35;;;9.80;76.70;;;;;;4403605;29;20050;-68
2021/11/16 08:11:29;;;;;;;58.08;32.53;;;9.90;76.50;;;;;;4403376;29;20107;-68
2021/11/16 08:13:57;;;;;;;51.10;29.88;;;10.00;76.20;;;;;;4404446;29;20055;-68
2021/11/16 08:16:14;;;;;;;58.03;33.67;;;10.10;75.90;;;;;;4403433;29;20047;-69
2021/11/16 08:18:36;;;;;;;82.10;45.85;;;10.10;75.80;;;;;;4404935;29;20549;-69
2021/11/16 08:21:01;;;;;;;52.80;31.48;;;10.20;75.70;;;;;;4403396;29;20057;-68
2021/11/16 08:23:17;;;;;;;57.00;31.38;;;10.30;75.40;;;;;;4403662;29;20047;-67
2021/11/16 08:25:34;;;;;;;59.35;33.28;;;10.40;75.20;;;;;;4416619;29;20058;-68
2021/11/16 08:27:53;;;;;;;56.55;32.65;;;10.40;75.10;;;;;;4419842;29;20612;-67
2021/11/16 08:30:12;;;;;;;61.58;34.15;;;10.50;74.90;;;;;;4419506;29;20043;-68
2021/11/16 08:32:38;;;;;;;54.95;32.17;;;10.50;74.60;;;;;;4421674;29;20097;-68
2021/11/16 08:34:57;;;;;;;57.67;32.15;;;10.60;74.40;;;;;;4418617;29;20085;-68
2021/11/16 08:37:16;;;;;;;60.75;32.47;;;10.60;74.10;;;;;;4421157;29;20144;-68
2021/11/16 08:39:37;;;;;;;53.42;30.75;;;10.60;74.10;;;;;;4418934;29;20564;-67
2021/11/16 08:41:53;;;;;;;59.60;30.52;;;10.70;74.00;;;;;;4419918;29;20058;-69
2021/11/16 08:44:14;;;;;;;52.53;31.13;;;10.70;73.80;;;;;;4420563;29;20429;-69
2021/11/16 08:46:33;;;;;;;58.97;32.70;;;10.70;73.60;;;;;;4421760;29;20077;-68
2021/11/16 08:48:51;;;;;;;56.53;33.78;;;10.70;73.50;;;;;;4424294;29;20050;-68
2021/11/16 08:51:11;;;;;;;54.08;30.92;;;10.80;73.40;;;;;;4422909;29;20061;-68
2021/11/16 08:53:30;;;;;;;53.03;31.58;;;10.80;73.40;;;;;;4408386;29;20079;-68
2021/11/16 08:55:47;;;;;;;54.08;31.38;;;10.80;73.30;;;;;;4422584;29;20162;-68
2021/11/16 08:58:05;;;;;;;58.92;33.95;;;10.90;72.90;;;;;;4423214;29;20050;-68
2021/11/16 09:00:25;;;;;;;56.08;32.70;;;10.90;72.80;;;;;;4422610;29;20062;-66
2021/11/16 09:02:42;;;;;;;54.78;31.85;;;11.00;72.80;;;;;;4422950;29;20058;-67
2021/11/16 09:05:11;;;;;;;54.38;32.33;;;11.00;72.60;;;;;;4420947;29;20050;-66
2021/11/16 09:07:32;;;;;;;53.17;30.40;;;11.00;72.40;;;;;;4422276;29;20074;-69
2021/11/16 09:09:54;;;;;;;59.92;32.38;;;11.10;72.20;;;;;;4423036;29;20046;-68
2021/11/16 09:12:13;;;;;;;56.72;32.67;;;11.10;72.10;;;;;;4423008;29;20073;-68
2021/11/16 09:14:31;;;;;;;57.28;32.13;;;11.10;71.80;;;;;;4423744;29;20511;-69
2021/11/16 09:16:47;;;;;;;63.13;33.80;;;11.10;71.70;;;;;;4422614;29;20425;-68
2021/11/16 09:19:07;;;;;;;56.40;32.85;;;11.10;71.70;;;;;;4422679;29;20050;-69
2021/11/16 09:21:36;;;;;;;56.47;31.85;;;11.10;71.60;;;;;;4422522;29;20073;-69
2021/11/16 09:24:05;;;;;;;55.88;31.55;;;11.20;71.60;;;;;;4423916;29;20107;-68
2021/11/16 09:26:31;;;;;;;57.72;32.78;;;11.30;71.40;;;;;;4421845;29;20058;-68
2021/11/16 09:28:50;;;;;;;56.05;33.67;;;11.30;71.20;;;;;;4422766;29;20096;-69
2021/11/16 09:31:20;;;;;;;59.65;34.30;;;11.40;70.90;;;;;;4422303;29;20054;-68
2021/11/16 09:33:37;;;;;;;55.38;33.20;;;11.40;70.80;;;;;;4421842;29;20366;-69
2021/11/16 09:35:58;;;;;;;56.88;33.67;;;11.50;70.60;;;;;;4422932;29;20085;-69
2021/11/16 09:38:41;;;;;;;57.92;34.45;;;11.50;70.40;;;;;;4421250;29;20084;-68
2021/11/16 09:40:59;;;;;;;61.78;34.95;;;11.60;70.30;;;;;;4422327;29;20506;-68
2021/11/16 09:43:16;;;;;;;61.47;35.58;;;11.60;70.20;;;;;;4421697;29;20417;-69
2021/11/16 09:45:35;;;;;;;68.78;34.60;;;11.70;70.00;;;;;;4423540;29;20158;-69
2021/11/16 09:47:52;;;;;;;64.45;35.22;;;11.70;69.90;;;;;;4420321;29;20143;-68
2021/11/16 09:50:11;;;;;;;68.15;34.70;;;11.70;69.80;;;;;;4422385;29;20050;-69
2021/11/16 09:52:31;;;;;;;61.65;34.28;;;11.80;69.70;;;;;;4421681;29;20133;-69
2021/11/16 09:54:52;;;;;;;57.42;34.83;;;11.80;69.60;;;;;;4423255;29;20074;-67
2021/11/16 09:57:13;;;;;;;57.95;33.92;;;11.90;69.30;;;;;;4421906;29;20072;-67
2021/11/16 09:59:30;;;;;;;56.78;34.22;;;11.90;69.30;;;;;;4422762;29;20102;-67
2021/11/16 10:01:49;;;;;;;58.05;34.67;;;11.90;70.00;;;;;;4422359;29;20082;-67
2021/11/16 10:04:12;;;;;;;55.50;33.72;;;12.00;69.10;;;;;;4422013;29;20059;-67
2021/11/16 10:06:32;;;;;;;61.67;34.72;;;12.00;68.90;;;;;;4421826;29;20561;-69
2021/11/16 10:08:51;;;;;;;58.50;33.90;;;12.00;69.10;;;;;;4421700;29;20050;-69
2021/11/16 10:11:09;;;;;;;58.78;34.13;;;12.10;68.70;;;;;;4421860;29;20482;-69
2021/11/16 10:13:28;;;;;;;64.93;39.58;;;12.10;68.50;;;;;;4421585;29;20046;-67
2021/11/16 10:15:49;;;;;;;130.88;72.47;;;12.10;68.40;;;;;;4421896;29;20062;-69
2021/11/16 10:18:06;;;;;;;64.32;33.47;;;12.10;68.40;;;;;;4421279;29;20133;-68
2021/11/16 10:20:26;;;;;;;55.63;33.38;;;12.10;68.10;;;;;;4421635;29;20097;-67
2021/11/16 10:23:08;;;;;;;59.55;33.72;;;12.10;68.20;;;;;;4420143;29;20100;-67
2021/11/16 10:25:28;;;;;;;59.05;33.35;;;12.20;68.40;;;;;;4421331;29;20199;-67
2021/11/16 10:27:47;;;;;;;58.65;33.30;;;12.20;68.20;;;;;;4420633;29;20050;-67
2021/11/16 10:30:14;;;;;;;57.33;32.83;;;12.30;68.00;;;;;;4422029;29;20078;-67
2021/11/16 10:32:30;;;;;;;54.58;31.63;;;12.30;68.00;;;;;;4422593;29;20130;-68
2021/11/16 10:34:49;;;;;;;61.42;34.92;;;12.30;67.90;;;;;;4421402;29;20139;-68
2021/11/16 10:37:07;;;;;;;58.38;34.00;;;12.40;67.80;;;;;;4422908;29;20073;-68
2021/11/16 10:39:24;;;;;;;57.72;35.63;;;12.50;67.50;;;;;;4421159;29;20054;-67
2021/11/16 10:41:42;;;;;;;62.58;35.40;;;12.50;67.10;;;;;;4421297;29;20077;-67
2021/11/16 10:44:03;;;;;;;62.05;35.92;;;12.60;66.90;;;;;;4419445;29;20055;-67
2021/11/16 10:46:22;;;;;;;68.25;39.28;;;12.70;66.90;;;;;;4422675;29;20061;-67
2021/11/16 10:48:41;;;;;;;61.30;35.38;;;12.70;66.70;;;;;;4420690;29;20570;-67
2021/11/16 10:51:04;;;;;;;61.38;35.67;;;12.80;66.60;;;;;;4422410;29;20075;-67
2021/11/16 10:53:22;;;;;;;57.42;35.72;;;12.80;66.40;;;;;;4419956;29;20054;-68
2021/11/16 10:55:42;;;;;;;58.03;35.35;;;12.80;66.30;;;;;;4421775;29;20038;-66
2021/11/16 10:58:04;;;;;;;55.60;34.08;;;12.80;66.20;;;;;;4421706;29;20054;-67
2021/11/16 11:00:31;;;;;;;60.42;35.38;;;12.90;66.10;;;;;;4420706;29;20050;-68
2021/11/16 11:03:19;;;;;;;58.97;35.05;;;12.90;66.10;;;;;;4420944;29;20062;-68
2021/11/16 11:05:36;;;;;;;54.95;35.10;;;12.90;66.00;;;;;;4419439;29;20077;-69
2021/11/16 11:07:52;;;;;;;57.67;34.70;;;13.00;65.90;;;;;;4422075;29;20083;-69
2021/11/16 11:10:09;;;;;;;57.65;33.90;;;13.00;65.70;;;;;;4420906;29;20062;-68
2021/11/16 11:12:29;;;;;;;55.40;32.85;;;13.00;65.40;;;;;;4422642;29;20070;-67
2021/11/16 11:14:46;;;;;;;56.40;33.63;;;12.90;65.20;;;;;;4419510;29;20133;-69
2021/11/16 11:17:10;;;;;;;50.10;31.38;;;12.90;65.30;;;;;;4422583;29;20390;-68
2021/11/16 11:19:30;;;;;;;54.55;33.03;;;12.90;65.20;;;;;;4421343;29;20078;-68
2021/11/16 11:21:57;;;;;;;62.88;35.10;;;12.80;65.10;;;;;;4420464;29;20058;-69
2021/11/16 11:24:22;;;;;;;61.97;35.88;;;12.80;65.20;;;;;;4420648;29;20053;-69
2021/11/16 11:26:43;;;;;;;52.67;33.53;;;12.80;65.10;;;;;;4420922;29;20082;-69
2021/11/16 11:29:14;;;;;;;62.38;36.00;;;12.80;65.10;;;;;;4422568;29;20129;-69
2021/11/16 11:31:30;;;;;;;59.80;35.05;;;12.80;65.00;;;;;;4420478;29;20046;-68
2021/11/16 11:33:51;;;;;;;57.40;35.25;;;12.80;65.10;;;;;;4420919;29;20078;-68
2021/11/16 11:36:18;;;;;;;60.75;35.50;;;12.80;65.00;;;;;;4419182;29;20103;-68
2021/11/16 11:38:36;;;;;;;61.22;34.60;;;12.80;64.80;;;;;;4422218;29;20058;-68
2021/11/16 11:40:56;;;;;;;57.20;33.88;;;12.90;64.60;;;;;;4420752;29;20073;-68
2021/11/16 11:43:20;;;;;;;58.58;34.50;;;12.80;64.20;;;;;;4420711;29;20422;-68
2021/11/16 11:45:38;;;;;;;64.93;37.25;;;12.80;64.50;;;;;;4419814;29;20129;-68
2021/11/16 11:48:09;;;;;;;55.83;35.55;;;12.80;64.60;;;;;;4421152;29;20053;-67
2021/11/16 11:50:30;;;;;;;60.45;36.33;;;12.90;64.50;;;;;;4421670;29;20516;-68
2021/11/16 11:52:47;;;;;;;56.92;35.97;;;12.90;64.30;;;;;;4420443;29;20078;-68
2021/11/16 11:55:04;;;;;;;57.90;35.03;;;12.90;64.30;;;;;;4419679;29;20081;-67
2021/11/16 11:57:22;;;;;;;60.38;34.33;;;12.90;64.10;;;;;;4419119;29;20050;-68
2021/11/16 11:59:42;;;;;;;58.92;34.67;;;13.00;63.80;;;;;;4421901;29;20055;-67
2021/11/16 12:02:00;;;;;;;60.95;35.90;;;13.00;63.70;;;;;;4418763;29;20081;-65
2021/11/16 12:04:20;;;;;;;61.72;36.65;;;13.00;63.60;;;;;;4421633;29;20566;-67